sensor_id;sensor_type;location;lat;lon;timestamp;pressure;altitude;pressure_sealevel;temperature;humidity
22775;BME280;11554;51.106;3.684;2023-11-19T00:00:00;101002.99;;;12.24;100.0
22775;BME280;11554;51.106;3.684;2023-11-19T00:05:00;101002.01;;;12.22;100.0
22775;BME280;11554;51.106;3.684;2023-11-19T00:10:00;100990.20000000001;;;12.17;100.0
22775;BME280;11554;51.106;3.684;2023-11-19T00:15:00;100986.65999999999;;;12.13;100.0
22775;BME280;11554;51.106;3.684;2023-11-19T00:20:00;100988.34000000001;;;12.06;100.0
22775;BME280;11554;51.106;3.684;2023-11-19T00:25:00;100998.53;;;12.01;100.0
22775;BME280;11554;51.106;3.684;2023-11-19T00:30:00;101007.95000000001;;;11.93;100.0
22775;BME280;11554;51.106;3.684;2023-11-19T00:35:00;101011.94;;;11.93;100.0
22775;BME280;11554;51.106;3.684;2023-11-19T00:40:00;101014.62;;;11.93;100.0
22775;BME280;11554;51.106;3.684;2023-11-19T00:45:00;101013.48000000001;;;11.93;100.0
22775;BME280;11554;51.106;3.684;2023-11-19T00:50:00;101004.63;;;11.87;100.0
22775;BME280;11554;51.106;3.684;2023-11-19T00:55:00;101011.65999999999;;;11.81;100.0
22775;BME280;11554;51.106;3.684;2023-11-19T01:00:00;101002.75;;;11.69;100.0
22775;BME280;11554;51.106;3.684;2023-11-19T01:05:00;100991.06;;;11.67;100.0
22775;BME280;11554;51.106;3.684;2023-11-19T01:10:00;100985.26000000001;;;11.56;100.0
22775;BME280;11554;51.106;3.684;2023-11-19T01:15:00;100990.62;;;11.49;100.0
22775;BME280;11554;51.106;3.684;2023-11-19T01:20:00;101000.95;;;11.44;100.0
22775;BME280;11554;51.106;3.684;2023-11-19T01:25:00;100999.94;;;11.38;100.0
22775;BME280;11554;51.106;3.684;2023-11-19T01:30:00;100993.03;;;11.41;100.0
22775;BME280;11554;51.106;3.684;2023-11-19T01:35:00;100993.94;;;11.42;100.0
22775;BME280;11554;51.106;3.684;2023-11-19T01:40:00;100993.55;;;11.39;100.0
22775;BME280;11554;51.106;3.684;2023-11-19T01:45:00;100985.70999999999;;;11.36;100.0
22775;BME280;11554;51.106;3.684;2023-11-19T01:50:00;100985.23;;;11.38;100.0
22775;BME280;11554;51.106;3.684;2023-11-19T01:55:00;100986.27;;;11.39;100.0
22775;BME280;11554;51.106;3.684;2023-11-19T02:00:00;100976.34000000001;;;11.35;100.0
22775;BME280;11554;51.106;3.684;2023-11-19T02:05:00;100976.03;;;11.19;100.0
22775;BME280;11554;51.106;3.684;2023-11-19T02:10:00;100982.64;;;11.10;100.0
22775;BME280;11554;51.106;3.684;2023-11-19T02:15:00;100978.34;;;11.00;100.0
22775;BME280;11554;51.106;3.684;2023-11-19T02:20:00;100980.61;;;10.96;100.0
22775;BME280;11554;51.106;3.684;2023-11-19T02:25:00;100984.83;;;10.87;100.0
22775;BME280;11554;51.106;3.684;2023-11-19T02:30:00;100976.5;;;10.87;100.0
22775;BME280;11554;51.106;3.684;2023-11-19T02:35:00;100974.01999999999;;;10.90;100.0
22775;BME280;11554;51.106;3.684;2023-11-19T02:40:00;100958.95000000001;;;10.92;100.0
22775;BME280;11554;51.106;3.684;2023-11-19T02:45:00;100951.56;;;10.83;100.0
22775;BME280;11554;51.106;3.684;2023-11-19T02:50:00;100959.3;;;10.79;100.0
22775;BME280;11554;51.106;3.684;2023-11-19T02:55:00;100957.08;;;10.76;100.0
22775;BME280;11554;51.106;3.684;2023-11-19T03:00:00;100942.65000000001;;;10.77;100.0
22775;BME280;11554;51.106;3.684;2023-11-19T03:05:00;100940.95;;;10.75;100.0
22775;BME280;11554;51.106;3.684;2023-11-19T03:10:00;100934.78;;;10.74;100.0
22775;BME280;11554;51.106;3.684;2023-11-19T03:15:00;100939.9;;;10.80;100.0
22775;BME280;11554;51.106;3.684;2023-11-19T03:20:00;100953.7;;;10.80;100.0
22775;BME280;11554;51.106;3.684;2023-11-19T03:25:00;100961.95;;;10.87;100.0
22775;BME280;11554;51.106;3.684;2023-11-19T03:30:00;100964.45;;;10.92;100.0
22775;BME280;11554;51.106;3.684;2023-11-19T03:35:00;100978.42000000001;;;10.90;100.0
22775;BME280;11554;51.106;3.684;2023-11-19T03:40:00;100972.19;;;10.77;100.0
22775;BME280;11554;51.106;3.684;2023-11-19T03:45:00;100987.19;;;10.63;100.0
22775;BME280;11554;51.106;3.684;2023-11-19T03:50:00;100989.42;;;10.54;100.0
22775;BME280;11554;51.106;3.684;2023-11-19T03:55:00;100981.41;;;10.44;100.0
22775;BME280;11554;51.106;3.684;2023-11-19T04:00:00;100989.98;;;10.35;100.0
22775;BME280;11554;51.106;3.684;2023-11-19T04:05:00;100993.56;;;10.32;100.0
22775;BME280;11554;51.106;3.684;2023-11-19T04:10:00;101000.51;;;10.23;100.0
22775;BME280;11554;51.106;3.684;2023-11-19T04:15:00;101000.86;;;10.11;100.0
22775;BME280;11554;51.106;3.684;2023-11-19T04:20:00;101001.47;;;10.03;100.0
22775;BME280;11554;51.106;3.684;2023-11-19T04:25:00;100997.2;;;10.02;100.0
22775;BME280;11554;51.106;3.684;2023-11-19T04:30:00;101008.33;;;9.94;100.0
22775;BME280;11554;51.106;3.684;2023-11-19T04:35:00;100999.84;;;9.88;100.0
22775;BME280;11554;51.106;3.684;2023-11-19T04:40:00;101005.48999999999;;;9.86;100.0
22775;BME280;11554;51.106;3.684;2023-11-19T04:45:00;101016.09;;;9.76;100.0
22775;BME280;11554;51.106;3.684;2023-11-19T04:50:00;101016.54999999999;;;9.75;100.0
22775;BME280;11554;51.106;3.684;2023-11-19T04:55:00;101004.65000000001;;;9.68;100.0
22775;BME280;11554;51.106;3.684;2023-11-19T05:00:00;101002.70000000001;;;9.60;100.0
22775;BME280;11554;51.106;3.684;2023-11-19T05:05:00;101000.98000000001;;;9.56;100.0
22775;BME280;11554;51.106;3.684;2023-11-19T05:10:00;100999.49;;;9.48;100.0
22775;BME280;11554;51.106;3.684;2023-11-19T05:15:00;101001.12000000001;;;9.41;100.0
22775;BME280;11554;51.106;3.684;2023-11-19T05:20:00;101000.42;;;9.39;100.0
22775;BME280;11554;51.106;3.684;2023-11-19T05:25:00;101007.06999999999;;;9.37;100.0
22775;BME280;11554;51.106;3.684;2023-11-19T05:30:00;101000.23;;;9.35;100.0
22775;BME280;11554;51.106;3.684;2023-11-19T05:35:00;101006.26;;;9.36;100.0
22775;BME280;11554;51.106;3.684;2023-11-19T05:40:00;101013.7;;;9.33;100.0
22775;BME280;11554;51.106;3.684;2023-11-19T05:45:00;101001.97;;;9.42;100.0
22775;BME280;11554;51.106;3.684;2023-11-19T05:50:00;100999.0;;;9.42;100.0
22775;BME280;11554;51.106;3.684;2023-11-19T05:55:00;100997.36;;;9.35;100.0
22775;BME280;11554;51.106;3.684;2023-11-19T06:00:00;101007.01000000001;;;9.28;100.0
22775;BME280;11554;51.106;3.684;2023-11-19T06:05:00;100997.05;;;9.23;100.0
22775;BME280;11554;51.106;3.684;2023-11-19T06:10:00;100994.59000000001;;;9.16;100.0
22775;BME280;11554;51.106;3.684;2023-11-19T06:15:00;101001.25;;;9.14;100.0
22775;BME280;11554;51.106;3.684;2023-11-19T06:20:00;100993.12999999999;;;9.16;100.0
22775;BME280;11554;51.106;3.684;2023-11-19T06:25:00;100995.4;;;9.16;100.0
22775;BME280;11554;51.106;3.684;2023-11-19T06:30:00;101006.87000000001;;;9.09;100.0
22775;BME280;11554;51.106;3.684;2023-11-19T06:35:00;101002.78;;;9.03;100.0
22775;BME280;11554;51.106;3.684;2023-11-19T06:40:00;101010.53;;;9.03;100.0
22775;BME280;11554;51.106;3.684;2023-11-19T06:45:00;101014.9;;;9.00;100.0
22775;BME280;11554;51.106;3.684;2023-11-19T06:50:00;101014.54;;;8.97;100.0
22775;BME280;11554;51.106;3.684;2023-11-19T06:55:00;101017.89;;;8.93;100.0
22775;BME280;11554;51.106;3.684;2023-11-19T07:00:00;101017.81;;;8.97;100.0
22775;BME280;11554;51.106;3.684;2023-11-19T07:05:00;101014.12;;;9.04;100.0
22775;BME280;11554;51.106;3.684;2023-11-19T07:10:00;101021.26;;;9.02;100.0
22775;BME280;11554;51.106;3.684;2023-11-19T07:15:00;101026.56;;;9.05;100.0
22775;BME280;11554;51.106;3.684;2023-11-19T07:20:00;101029.90999999999;;;9.04;100.0
22775;BME280;11554;51.106;3.684;2023-11-19T07:25:00;101034.82;;;9.10;100.0
22775;BME280;11554;51.106;3.684;2023-11-19T07:30:00;101034.72;;;9.14;100.0
22775;BME280;11554;51.106;3.684;2023-11-19T07:35:00;101029.83;;;9.27;100.0
22775;BME280;11554;51.106;3.684;2023-11-19T07:40:00;101035.79999999999;;;9.23;100.0
22775;BME280;11554;51.106;3.684;2023-11-19T07:45:00;101046.59;;;9.33;100.0
22775;BME280;11554;51.106;3.684;2023-11-19T07:50:00;101041.88;;;9.41;100.0
22775;BME280;11554;51.106;3.684;2023-11-19T07:55:00;101033.58;;;9.45;100.0
22775;BME280;11554;51.106;3.684;2023-11-19T08:00:00;101030.31999999999;;;9.52;100.0
22775;BME280;11554;51.106;3.684;2023-11-19T08:05:00;101028.06;;;9.70;100.0
22775;BME280;11554;51.106;3.684;2023-11-19T08:10:00;101041.69;;;9.88;100.0
22775;BME280;11554;51.106;3.684;2023-11-19T08:15:00;101039.37;;;9.95;100.0
22775;BME280;11554;51.106;3.684;2023-11-19T08:20:00;101042.52;;;9.99;100.0
22775;BME280;11554;51.106;3.684;2023-11-19T08:25:00;101039.89;;;10.02;100.0
22775;BME280;11554;51.106;3.684;2023-11-19T08:30:00;101037.41;;;10.12;100.0
22775;BME280;11554;51.106;3.684;2023-11-19T08:35:00;101030.96;;;10.20;100.0
22775;BME280;11554;51.106;3.684;2023-11-19T08:40:00;101039.85;;;10.28;100.0
22775;BME280;11554;51.106;3.684;2023-11-19T08:45:00;101035.35;;;10.33;100.0
22775;BME280;11554;51.106;3.684;2023-11-19T08:50:00;101041.6;;;10.64;100.0
22775;BME280;11554;51.106;3.684;2023-11-19T08:55:00;101038.42;;;10.83;100.0
22775;BME280;11554;51.106;3.684;2023-11-19T09:00:00;101055.40999999999;;;11.01;100.0
22775;BME280;11554;51.106;3.684;2023-11-19T09:05:00;101050.12000000001;;;11.00;100.0
22775;BME280;11554;51.106;3.684;2023-11-19T09:10:00;101043.44;;;11.08;100.0
22775;BME280;11554;51.106;3.684;2023-11-19T09:15:00;101037.78;;;10.95;100.0
22775;BME280;11554;51.106;3.684;2023-11-19T09:20:00;101039.11;;;10.75;100.0
22775;BME280;11554;51.106;3.684;2023-11-19T09:25:00;101039.59;;;10.69;100.0
22775;BME280;11554;51.106;3.684;2023-11-19T09:30:00;101027.33;;;10.70;100.0
22775;BME280;11554;51.106;3.684;2023-11-19T09:35:00;101042.36;;;10.78;100.0
22775;BME280;11554;51.106;3.684;2023-11-19T09:40:00;101032.83;;;11.10;100.0
22775;BME280;11554;51.106;3.684;2023-11-19T09:45:00;101025.89;;;11.68;100.0
22775;BME280;11554;51.106;3.684;2023-11-19T09:50:00;101032.79;;;11.66;100.0
22775;BME280;11554;51.106;3.684;2023-11-19T09:55:00;101029.96;;;11.49;100.0
22775;BME280;11554;51.106;3.684;2023-11-19T10:00:00;101033.14;;;11.59;100.0
22775;BME280;11554;51.106;3.684;2023-11-19T10:05:00;101043.92;;;11.76;100.0
22775;BME280;11554;51.106;3.684;2023-11-19T10:10:00;101040.12;;;11.68;100.0
22775;BME280;11554;51.106;3.684;2023-11-19T10:15:00;101043.42;;;11.74;100.0
22775;BME280;11554;51.106;3.684;2023-11-19T10:20:00;101040.42;;;11.80;100.0
22775;BME280;11554;51.106;3.684;2023-11-19T10:25:00;101044.8;;;11.76;100.0
22775;BME280;11554;51.106;3.684;2023-11-19T10:30:00;101034.88;;;11.67;100.0
22775;BME280;11554;51.106;3.684;2023-11-19T10:35:07;101029.86;;;11.62;100.0
22775;BME280;11554;51.106;3.684;2023-11-19T10:40:00;101024.39;;;11.60;100.0
22775;BME280;11554;51.106;3.684;2023-11-19T10:45:00;101036.27;;;11.97;100.0
22775;BME280;11554;51.106;3.684;2023-11-19T10:50:00;101017.11;;;12.28;100.0
22775;BME280;11554;51.106;3.684;2023-11-19T10:55:00;101007.92;;;12.60;100.0
22775;BME280;11554;51.106;3.684;2023-11-19T11:00:01;100997.77;;;12.72;100.0
22775;BME280;11554;51.106;3.684;2023-11-19T11:05:00;100988.05;;;12.77;100.0
22775;BME280;11554;51.106;3.684;2023-11-19T11:10:00;100983.34;;;12.83;100.0
22775;BME280;11554;51.106;3.684;2023-11-19T11:15:00;100975.93000000001;;;13.01;100.0
22775;BME280;11554;51.106;3.684;2023-11-19T11:20:00;100976.44;;;12.93;100.0
22775;BME280;11554;51.106;3.684;2023-11-19T11:25:06;100970.61;;;12.75;100.0
22775;BME280;11554;51.106;3.684;2023-11-19T11:30:02;100965.32999999999;;;12.58;100.0
22775;BME280;11554;51.106;3.684;2023-11-19T11:35:11;100955.17;;;12.44;100.0
22775;BME280;11554;51.106;3.684;2023-11-19T11:40:00;100978.68999999999;;;12.20;100.0
22775;BME280;11554;51.106;3.684;2023-11-19T11:45:01;101000.76000000001;;;11.99;100.0
22775;BME280;11554;51.106;3.684;2023-11-19T11:50:04;101009.95;;;11.92;100.0
22775;BME280;11554;51.106;3.684;2023-11-19T11:55:03;100997.14;;;11.84;100.0
22775;BME280;11554;51.106;3.684;2023-11-19T12:00:01;101002.08;;;11.99;100.0
22775;BME280;11554;51.106;3.684;2023-11-19T12:05:00;100996.69;;;12.17;100.0
22775;BME280;11554;51.106;3.684;2023-11-19T12:10:05;100974.44;;;12.36;100.0
22775;BME280;11554;51.106;3.684;2023-11-19T12:15:01;100966.13;;;12.66;100.0
22775;BME280;11554;51.106;3.684;2023-11-19T12:20:00;100964.81999999999;;;12.78;100.0
22775;BME280;11554;51.106;3.684;2023-11-19T12:25:00;100953.4;;;12.74;100.0
22775;BME280;11554;51.106;3.684;2023-11-19T12:30:00;100934.39;;;12.94;100.0
22775;BME280;11554;51.106;3.684;2023-11-19T12:35:00;100931.41;;;12.82;100.0
22775;BME280;11554;51.106;3.684;2023-11-19T12:40:00;100956.37000000001;;;12.72;100.0
22775;BME280;11554;51.106;3.684;2023-11-19T12:45:00;100962.11;;;12.43;100.0
22775;BME280;11554;51.106;3.684;2023-11-19T12:50:00;100954.78;;;12.50;100.0
22775;BME280;11554;51.106;3.684;2023-11-19T12:55:00;100960.46;;;12.62;100.0
22775;BME280;11554;51.106;3.684;2023-11-19T13:00:00;100960.63;;;12.57;100.0
22775;BME280;11554;51.106;3.684;2023-11-19T13:10:01;100943.46;;;12.85;100.0
22775;BME280;11554;51.106;3.684;2023-11-19T13:15:00;100939.65;;;12.69;100.0
22775;BME280;11554;51.106;3.684;2023-11-19T13:20:00;100941.47;;;12.59;100.0
22775;BME280;11554;51.106;3.684;2023-11-19T13:25:00;100932.5;;;12.46;100.0
22775;BME280;11554;51.106;3.684;2023-11-19T13:30:00;100926.22;;;12.31;100.0
22775;BME280;11554;51.106;3.684;2023-11-19T13:35:00;100921.78;;;12.18;100.0
22775;BME280;11554;51.106;3.684;2023-11-19T13:40:00;100932.7;;;12.29;100.0
22775;BME280;11554;51.106;3.684;2023-11-19T13:45:00;100925.0;;;12.14;100.0
22775;BME280;11554;51.106;3.684;2023-11-19T13:50:00;100945.76;;;11.97;100.0
22775;BME280;11554;51.106;3.684;2023-11-19T13:55:00;100971.95;;;11.93;100.0
22775;BME280;11554;51.106;3.684;2023-11-19T14:00:00;100953.05;;;12.08;100.0
22775;BME280;11554;51.106;3.684;2023-11-19T14:05:00;100939.81;;;12.16;100.0
22775;BME280;11554;51.106;3.684;2023-11-19T14:10:00;100935.63;;;12.04;100.0
22775;BME280;11554;51.106;3.684;2023-11-19T14:15:00;100929.22;;;12.08;100.0
22775;BME280;11554;51.106;3.684;2023-11-19T14:20:00;100919.81;;;11.82;100.0
22775;BME280;11554;51.106;3.684;2023-11-19T14:25:00;100917.88;;;11.80;100.0
22775;BME280;11554;51.106;3.684;2023-11-19T14:30:00;100915.99;;;11.71;100.0
22775;BME280;11554;51.106;3.684;2023-11-19T14:35:00;100896.19;;;11.67;100.0
22775;BME280;11554;51.106;3.684;2023-11-19T14:40:00;100891.58;;;11.69;100.0
22775;BME280;11554;51.106;3.684;2023-11-19T14:45:00;100879.04999999999;;;11.65;100.0
22775;BME280;11554;51.106;3.684;2023-11-19T14:50:00;100869.55;;;11.57;100.0
22775;BME280;11554;51.106;3.684;2023-11-19T14:55:00;100876.11;;;11.51;100.0
22775;BME280;11554;51.106;3.684;2023-11-19T15:00:00;100880.74;;;11.48;100.0
22775;BME280;11554;51.106;3.684;2023-11-19T15:05:00;100863.44;;;11.45;100.0
22775;BME280;11554;51.106;3.684;2023-11-19T15:10:00;100865.78;;;11.39;100.0
22775;BME280;11554;51.106;3.684;2023-11-19T15:15:00;100884.11;;;11.33;100.0
22775;BME280;11554;51.106;3.684;2023-11-19T15:20:00;100887.28;;;11.29;100.0
22775;BME280;11554;51.106;3.684;2023-11-19T15:25:00;100889.75;;;11.28;100.0
22775;BME280;11554;51.106;3.684;2023-11-19T15:30:00;100897.25;;;11.22;100.0
22775;BME280;11554;51.106;3.684;2023-11-19T15:35:00;100889.70000000001;;;11.12;100.0
22775;BME280;11554;51.106;3.684;2023-11-19T15:40:00;100883.88;;;11.04;100.0
22775;BME280;11554;51.106;3.684;2023-11-19T15:45:00;100891.52;;;11.00;100.0
22775;BME280;11554;51.106;3.684;2023-11-19T15:50:00;100892.83;;;10.96;100.0
22775;BME280;11554;51.106;3.684;2023-11-19T15:55:00;100894.58;;;10.93;100.0
22775;BME280;11554;51.106;3.684;2023-11-19T16:00:00;100891.83;;;10.90;100.0
22775;BME280;11554;51.106;3.684;2023-11-19T16:05:00;100895.26;;;10.90;100.0
22775;BME280;11554;51.106;3.684;2023-11-19T16:10:00;100901.54;;;10.89;100.0
22775;BME280;11554;51.106;3.684;2023-11-19T16:15:00;100903.67;;;10.89;100.0
22775;BME280;11554;51.106;3.684;2023-11-19T16:20:00;100891.16;;;10.88;100.0
22775;BME280;11554;51.106;3.684;2023-11-19T16:25:00;100886.37999999999;;;10.87;100.0
22775;BME280;11554;51.106;3.684;2023-11-19T16:30:00;100887.54000000001;;;10.86;100.0
22775;BME280;11554;51.106;3.684;2023-11-19T16:35:00;100888.48000000001;;;10.86;100.0
22775;BME280;11554;51.106;3.684;2023-11-19T16:40:00;100889.88;;;10.86;100.0
22775;BME280;11554;51.106;3.684;2023-11-19T16:45:00;100893.75;;;10.86;100.0
22775;BME280;11554;51.106;3.684;2023-11-19T16:50:00;100903.47;;;10.87;100.0
22775;BME280;11554;51.106;3.684;2023-11-19T16:55:00;100905.8;;;10.86;100.0
22775;BME280;11554;51.106;3.684;2023-11-19T17:00:00;100910.96;;;10.83;100.0
22775;BME280;11554;51.106;3.684;2023-11-19T17:05:00;100904.04;;;10.83;100.0
22775;BME280;11554;51.106;3.684;2023-11-19T17:10:00;100903.25;;;10.80;100.0
22775;BME280;11554;51.106;3.684;2023-11-19T17:15:00;100901.71;;;10.78;100.0
22775;BME280;11554;51.106;3.684;2023-11-19T17:20:00;100901.86;;;10.76;100.0
22775;BME280;11554;51.106;3.684;2023-11-19T17:25:00;100897.64;;;10.77;100.0
22775;BME280;11554;51.106;3.684;2023-11-19T17:30:00;100909.0;;;10.77;100.0
22775;BME280;11554;51.106;3.684;2023-11-19T17:35:00;100909.47;;;10.76;100.0
22775;BME280;11554;51.106;3.684;2023-11-19T17:40:00;100916.76999999999;;;10.75;100.0
22775;BME280;11554;51.106;3.684;2023-11-19T17:45:00;100911.95;;;10.74;100.0
22775;BME280;11554;51.106;3.684;2023-11-19T17:50:00;100907.46;;;10.72;100.0
22775;BME280;11554;51.106;3.684;2023-11-19T17:55:00;100909.09;;;10.72;100.0
22775;BME280;11554;51.106;3.684;2023-11-19T18:00:00;100908.87;;;10.71;100.0
22775;BME280;11554;51.106;3.684;2023-11-19T18:05:00;100911.6;;;10.72;100.0
22775;BME280;11554;51.106;3.684;2023-11-19T18:10:00;100913.73;;;10.74;100.0
22775;BME280;11554;51.106;3.684;2023-11-19T18:15:00;100908.04000000001;;;10.73;100.0
22775;BME280;11554;51.106;3.684;2023-11-19T18:20:00;100905.26999999999;;;10.72;100.0
22775;BME280;11554;51.106;3.684;2023-11-19T18:25:00;100912.06;;;10.69;100.0
22775;BME280;11554;51.106;3.684;2023-11-19T18:30:00;100907.81;;;10.67;100.0
22775;BME280;11554;51.106;3.684;2023-11-19T18:35:00;100903.61;;;10.63;100.0
22775;BME280;11554;51.106;3.684;2023-11-19T18:40:00;100907.48;;;10.64;100.0
22775;BME280;11554;51.106;3.684;2023-11-19T18:45:00;100909.19;;;10.66;100.0
22775;BME280;11554;51.106;3.684;2023-11-19T18:50:00;100914.98;;;10.71;100.0
22775;BME280;11554;51.106;3.684;2023-11-19T18:55:00;100920.01000000001;;;10.74;100.0
22775;BME280;11554;51.106;3.684;2023-11-19T19:00:00;100916.92;;;10.76;100.0
22775;BME280;11554;51.106;3.684;2023-11-19T19:05:00;100904.74;;;10.79;100.0
22775;BME280;11554;51.106;3.684;2023-11-19T19:10:00;100909.55;;;10.81;100.0
22775;BME280;11554;51.106;3.684;2023-11-19T19:15:00;100904.49;;;10.81;100.0
22775;BME280;11554;51.106;3.684;2023-11-19T19:20:00;100913.11;;;10.84;100.0
22775;BME280;11554;51.106;3.684;2023-11-19T19:25:00;100914.73;;;10.85;100.0
22775;BME280;11554;51.106;3.684;2023-11-19T19:30:00;100919.73000000001;;;10.84;100.0
22775;BME280;11554;51.106;3.684;2023-11-19T19:35:00;100927.4;;;10.85;100.0
22775;BME280;11554;51.106;3.684;2023-11-19T19:40:00;100916.0;;;10.90;100.0
22775;BME280;11554;51.106;3.684;2023-11-19T19:45:00;100911.04000000001;;;10.88;100.0
22775;BME280;11554;51.106;3.684;2023-11-19T19:50:00;100897.33;;;10.86;100.0
22775;BME280;11554;51.106;3.684;2023-11-19T19:55:00;100896.47;;;10.81;100.0
22775;BME280;11554;51.106;3.684;2023-11-19T20:00:00;100897.45;;;10.76;100.0
22775;BME280;11554;51.106;3.684;2023-11-19T20:05:00;100904.94;;;10.72;100.0
22775;BME280;11554;51.106;3.684;2023-11-19T20:10:00;100904.74;;;10.73;100.0
22775;BME280;11554;51.106;3.684;2023-11-19T20:15:00;100913.76000000001;;;10.81;100.0
22775;BME280;11554;51.106;3.684;2023-11-19T20:20:00;100909.59;;;10.83;100.0
22775;BME280;11554;51.106;3.684;2023-11-19T20:25:00;100917.42;;;10.83;100.0
22775;BME280;11554;51.106;3.684;2023-11-19T20:30:00;100921.91;;;10.82;100.0
22775;BME280;11554;51.106;3.684;2023-11-19T20:35:00;100925.2;;;10.87;100.0
22775;BME280;11554;51.106;3.684;2023-11-19T20:40:00;100929.6;;;10.88;100.0
22775;BME280;11554;51.106;3.684;2023-11-19T20:45:00;100928.22;;;10.85;100.0
22775;BME280;11554;51.106;3.684;2023-11-19T20:50:00;100944.83;;;10.76;100.0
22775;BME280;11554;51.106;3.684;2023-11-19T20:55:00;100942.07;;;10.70;100.0
22775;BME280;11554;51.106;3.684;2023-11-19T21:00:00;100945.53;;;10.68;100.0
22775;BME280;11554;51.106;3.684;2023-11-19T21:05:00;100954.5;;;10.69;100.0
22775;BME280;11554;51.106;3.684;2023-11-19T21:10:00;100955.18;;;10.69;100.0
22775;BME280;11554;51.106;3.684;2023-11-19T21:15:00;100957.08;;;10.65;100.0
22775;BME280;11554;51.106;3.684;2023-11-19T21:20:00;100959.7;;;10.62;100.0
22775;BME280;11554;51.106;3.684;2023-11-19T21:25:00;100965.17;;;10.56;100.0
22775;BME280;11554;51.106;3.684;2023-11-19T21:30:00;100959.75;;;10.53;100.0
22775;BME280;11554;51.106;3.684;2023-11-19T21:35:00;100963.31;;;10.48;100.0
22775;BME280;11554;51.106;3.684;2023-11-19T21:40:00;100964.87;;;10.42;100.0
22775;BME280;11554;51.106;3.684;2023-11-19T21:45:00;100964.89;;;10.36;100.0
22775;BME280;11554;51.106;3.684;2023-11-19T21:50:00;100957.33;;;10.32;100.0
22775;BME280;11554;51.106;3.684;2023-11-19T21:55:00;100952.81;;;10.37;100.0
22775;BME280;11554;51.106;3.684;2023-11-19T22:00:00;100968.59;;;10.40;100.0
22775;BME280;11554;51.106;3.684;2023-11-19T22:05:00;100963.59;;;10.36;100.0
22775;BME280;11554;51.106;3.684;2023-11-19T22:10:00;100968.66;;;10.35;100.0
22775;BME280;11554;51.106;3.684;2023-11-19T22:15:00;100980.16;;;10.38;100.0
22775;BME280;11554;51.106;3.684;2023-11-19T22:20:00;100966.43000000001;;;10.50;100.0
22775;BME280;11554;51.106;3.684;2023-11-19T22:25:00;100984.93;;;10.56;100.0
22775;BME280;11554;51.106;3.684;2023-11-19T22:30:00;100980.61;;;10.54;100.0
22775;BME280;11554;51.106;3.684;2023-11-19T22:35:00;100985.69;;;10.52;100.0
22775;BME280;11554;51.106;3.684;2023-11-19T22:40:00;100978.61;;;10.40;100.0
22775;BME280;11554;51.106;3.684;2023-11-19T22:45:00;100983.31;;;10.28;100.0
22775;BME280;11554;51.106;3.684;2023-11-19T22:50:00;100982.98999999999;;;10.23;100.0
22775;BME280;11554;51.106;3.684;2023-11-19T22:55:00;100976.70000000001;;;10.18;100.0
22775;BME280;11554;51.106;3.684;2023-11-19T23:00:00;100980.11;;;10.14;100.0
22775;BME280;11554;51.106;3.684;2023-11-19T23:05:00;100975.01999999999;;;10.11;100.0
22775;BME280;11554;51.106;3.684;2023-11-19T23:10:00;100985.39;;;10.12;100.0
22775;BME280;11554;51.106;3.684;2023-11-19T23:15:00;100983.33;;;10.17;100.0
22775;BME280;11554;51.106;3.684;2023-11-19T23:20:01;100989.34000000001;;;10.20;100.0
22775;BME280;11554;51.106;3.684;2023-11-19T23:25:00;100983.47;;;10.29;100.0
22775;BME280;11554;51.106;3.684;2023-11-19T23:30:00;100983.58;;;10.36;100.0
22775;BME280;11554;51.106;3.684;2023-11-19T23:35:00;100980.08;;;10.40;100.0
22775;BME280;11554;51.106;3.684;2023-11-19T23:40:00;100982.98;;;10.43;100.0
22775;BME280;11554;51.106;3.684;2023-11-19T23:45:00;100990.86;;;10.46;100.0
22775;BME280;11554;51.106;3.684;2023-11-19T23:50:00;100991.02;;;10.48;100.0
22775;BME280;11554;51.106;3.684;2023-11-19T23:55:00;101003.76;;;10.46;100.0
